»·PEaware :: N716TH KSNA-KSMO

N716TH :: KSNA-KSMO

FLIGHT INFORMATION

Flight Status: Arrived
Operator: Privately registered:
United States
More flights under this callsign
Pilot: Danny R. (17997)
Aircraft: CESSNA 172 SKYHAWK
(C172)
More flights by this aircraft type
Origin: KSNA John Wayne-Orange Co
United States
Destination: KSMO Santa Monica Mun
United States
More flights between these airports :: More routes between these airports
Route: SLI V8 POXKU V363 BAYJY V186 DARTS
File this flight plan on PilotEdge
Remarks: CSTN9 for I-4
Altitude:
(Current/Filed)
6,000ft
Speed:
(Current/Filed)
100kts
Departed: 29-Mar-18 10:40 AM
Arrived: 29-Mar-18 11:22 AM
Distance/Time
Traveled:
35nm/0:41
Distance/Time
To Go:
Arrived

Flight Plot

Page will automatically refresh every two minutes.


Map Options




Map Legend


Flown Route
Filed Route
Departure Airport
Arrival Airport
Navaid (VOR, NDB)
Fix

Horizontal Profiles

Position Reports

Time Latitude Longitude Heading Altitude Ground
Speed
29-Mar-18 10:17 33.670850 -117.868237 215 60ft 0kts
29-Mar-18 10:18 33.670850 -117.868237 215 60ft 0kts
29-Mar-18 10:19 33.670850 -117.868237 215 60ft 0kts
29-Mar-18 10:20 33.670850 -117.868237 215 60ft 0kts
29-Mar-18 10:21 33.670850 -117.868237 215 60ft 0kts
29-Mar-18 10:22 33.670850 -117.868237 215 60ft 0kts
29-Mar-18 10:23 33.670850 -117.868237 215 60ft 0kts
29-Mar-18 10:24 33.670850 -117.868237 215 60ft 0kts
29-Mar-18 10:25 33.670850 -117.868237 215 60ft 0kts
29-Mar-18 10:26 33.670850 -117.868237 215 60ft 0kts
29-Mar-18 10:27 33.670850 -117.868237 215 60ft 0kts
29-Mar-18 10:28 33.670850 -117.868237 215 60ft 0kts
29-Mar-18 10:29 33.671974 -117.868231 29 60ft 14kts
29-Mar-18 10:30 33.673420 -117.867887 148 60ft 0kts
29-Mar-18 10:31 33.673421 -117.867888 148 60ft 0kts
29-Mar-18 10:32 33.673421 -117.867888 148 60ft 0kts
29-Mar-18 10:33 33.673421 -117.867888 148 60ft 0kts
29-Mar-18 10:34 33.673421 -117.867888 148 60ft 0kts
29-Mar-18 10:35 33.674248 -117.866984 28 60ft 12kts
29-Mar-18 10:36 33.677880 -117.864688 27 60ft 15kts
29-Mar-18 10:37 33.680015 -117.863675 301 60ft 0kts
29-Mar-18 10:38 33.680018 -117.864208 218 60ft 9kts
29-Mar-18 10:39 33.666125 -117.873930 212 682ft 72kts
29-Mar-18 10:40 33.653702 -117.894263 232 1532ft 82kts
29-Mar-18 10:41 33.639504 -117.917664 237 2099ft 90kts
29-Mar-18 10:42 33.650462 -117.933515 13 2578ft 93kts
29-Mar-18 10:43 33.674891 -117.927066 11 3292ft 91kts
29-Mar-18 10:44 33.698753 -117.918947 15 4032ft 88kts
29-Mar-18 10:45 33.722456 -117.911268 15 4788ft 90kts
29-Mar-18 10:46 33.746815 -117.904869 14 5530ft 88kts
29-Mar-18 10:47 33.771923 -117.898632 12 5951ft 101kts
29-Mar-18 10:48 33.800194 -117.890436 13 6059ft 109kts
29-Mar-18 10:49 33.825179 -117.874102 56 6115ft 107kts
29-Mar-18 10:50 33.834704 -117.840172 75 6059ft 110kts
29-Mar-18 10:51 33.843616 -117.805481 69 6071ft 106kts
29-Mar-18 10:52 33.858052 -117.780638 359 6096ft 105kts
29-Mar-18 10:53 33.886844 -117.780677 1 6067ft 106kts
29-Mar-18 10:54 33.916458 -117.780535 3 6010ft 107kts
29-Mar-18 10:55 33.946020 -117.782760 357 6017ft 102kts
29-Mar-18 10:56 33.973903 -117.782802 3 6053ft 101kts
29-Mar-18 10:57 34.001762 -117.785279 334 6078ft 101kts
29-Mar-18 10:58 34.011780 -117.816242 285 6022ft 105kts
29-Mar-18 10:59 34.019468 -117.849697 285 5971ft 104kts
29-Mar-18 11:00 34.029934 -117.881507 287 6071ft 93kts
29-Mar-18 11:01 34.040536 -117.911442 288 6108ft 97kts
29-Mar-18 11:02 34.049974 -117.943010 288 6077ft 105kts
29-Mar-18 11:03 34.060727 -117.975266 290 6088ft 104kts
29-Mar-18 11:04 34.070853 -118.008066 286 6055ft 106kts
29-Mar-18 11:05 34.082238 -118.041808 294 5954ft 109kts
29-Mar-18 11:06 34.093242 -118.075355 294 5907ft 108kts
29-Mar-18 11:07 34.106021 -118.107953 287 5727ft 110kts
29-Mar-18 11:08 34.115442 -118.142477 284 5268ft 107kts
29-Mar-18 11:09 34.124912 -118.176506 287 4810ft 106kts
29-Mar-18 11:10 34.134451 -118.208804 289 4676ft 105kts
29-Mar-18 11:11 34.145121 -118.242172 293 4521ft 109kts
29-Mar-18 11:12 34.154123 -118.276083 256 4378ft 103kts
29-Mar-18 11:13 34.134082 -118.298299 226 4328ft 98kts
29-Mar-18 11:14 34.113798 -118.322309 221 4085ft 106kts
29-Mar-18 11:15 34.093321 -118.347822 228 3145ft 110kts
29-Mar-18 11:16 34.074668 -118.375007 232 2044ft 103kts
29-Mar-18 11:17 34.056730 -118.397327 223 1469ft 91kts
29-Mar-18 11:18 34.039911 -118.417306 236 1235ft 81kts
29-Mar-18 11:19 34.030966 -118.433866 226 740ft 53kts
29-Mar-18 11:20 34.020559 -118.445737 221 201ft 44kts
29-Mar-18 11:21 34.018177 -118.447670 129 181ft 0kts
29-Mar-18 11:22 34.019139 -118.446266 44 181ft 14kts
29-Mar-18 11:23 34.018689 -118.446371 344 181ft 1kts
29-Mar-18 11:24 34.018742 -118.446398 323 181ft 0kts
29-Mar-18 11:25 34.018742 -118.446398 323 181ft 0kts
29-Mar-18 11:26 34.018742 -118.446398 323 181ft 0kts
29-Mar-18 11:27 34.018742 -118.446398 323 181ft 0kts
29-Mar-18 11:28 34.018742 -118.446398 323 181ft 0kts
29-Mar-18 11:29 34.018742 -118.446398 323 181ft 0kts
29-Mar-18 11:30 34.018742 -118.446398 323 181ft 0kts
29-Mar-18 11:31 34.018742 -118.446398 323 181ft 0kts
29-Mar-18 11:32 34.018742 -118.446398 323 181ft 0kts
29-Mar-18 11:33 34.018742 -118.446398 323 181ft 0kts

Navigation Log

Ident Type
1. KSNA Airport
2. SLI Navaid
3. AHEIM Fix
4. OLLIE Fix
5. POXKU Fix
6. POXKU Fix
7. PRADO Fix
8. BAYJY Fix
9. BAYJY Fix
10. ADAMM Fix
11. PIRRO Fix
12. ITSME Fix
13. ELMOO Fix
14. PURMS Fix
15. DARTS Fix
16. KSMO Airport